createdAt,value
2022-12-08T00:01:14.709Z,82.00
2022-12-08T00:03:42.150Z,81.90
2022-12-08T00:06:40.721Z,81.90
2022-12-08T00:09:22.641Z,82.00
2022-12-08T00:11:53.813Z,81.90
2022-12-08T00:14:24.069Z,82.00
2022-12-08T00:16:50.888Z,82.00
2022-12-08T00:19:17.687Z,82.00
2022-12-08T00:21:44.267Z,82.10
2022-12-08T00:24:11.181Z,82.20
2022-12-08T00:26:38.294Z,82.20
2022-12-08T00:29:05.813Z,82.40
2022-12-08T00:31:32.808Z,82.40
2022-12-08T00:34:00.017Z,82.40
2022-12-08T00:36:27.033Z,82.50
2022-12-08T00:38:53.652Z,82.40
2022-12-08T00:41:42.251Z,82.40
2022-12-08T00:44:09.753Z,82.40
2022-12-08T00:46:36.754Z,82.40
2022-12-08T00:49:04.898Z,82.40
2022-12-08T00:51:31.518Z,82.30
2022-12-08T00:53:58.190Z,82.30
2022-12-08T00:56:24.971Z,82.30
2022-12-08T00:58:51.989Z,82.30
2022-12-08T01:01:18.786Z,82.20
2022-12-08T01:03:45.572Z,82.30
2022-12-08T01:06:12.278Z,82.40
2022-12-08T01:08:39.902Z,82.40
2022-12-08T01:11:09.271Z,82.40
2022-12-08T01:13:36.001Z,82.30
2022-12-08T01:16:02.725Z,82.40
2022-12-08T01:18:29.913Z,82.30
2022-12-08T01:21:02.793Z,82.40
2022-12-08T01:23:30.015Z,82.40
2022-12-08T01:26:00.855Z,82.40
2022-12-08T01:28:27.450Z,82.40
2022-12-08T01:30:54.068Z,82.50
2022-12-08T01:33:20.701Z,82.50
2022-12-08T01:35:47.290Z,82.60
2022-12-08T01:38:13.938Z,82.70
2022-12-08T01:40:40.682Z,82.60
2022-12-08T01:43:20.637Z,82.70
2022-12-08T01:45:47.951Z,82.70
2022-12-08T01:48:21.549Z,82.60
2022-12-08T01:50:49.661Z,82.70
2022-12-08T01:53:22.231Z,82.70
2022-12-08T01:56:12.956Z,82.70
2022-12-08T01:58:43.390Z,82.70
2022-12-08T02:01:11.185Z,82.60
2022-12-08T02:03:42.405Z,82.50
2022-12-08T02:06:10.490Z,82.50
2022-12-08T02:08:40.151Z,82.50
2022-12-08T02:11:10.213Z,82.60
2022-12-08T02:13:37.598Z,82.60
2022-12-08T02:16:21.737Z,82.60
2022-12-08T02:19:30.383Z,82.60
2022-12-08T02:21:59.109Z,82.60
2022-12-08T02:24:40.320Z,82.60
2022-12-08T02:27:12.772Z,82.60
2022-12-08T02:30:07.482Z,82.60
2022-12-08T02:32:58.123Z,82.70
2022-12-08T02:35:53.822Z,82.70
2022-12-08T02:38:37.396Z,82.70
2022-12-08T02:41:12.806Z,82.70
2022-12-08T02:43:47.335Z,82.70
2022-12-08T02:46:27.034Z,82.80
2022-12-08T02:48:55.570Z,83.60
2022-12-08T02:51:22.299Z,82.90
2022-12-08T02:53:49.055Z,82.90
2022-12-08T02:56:38.366Z,82.90
2022-12-08T02:59:19.954Z,82.90
2022-12-08T03:02:08.246Z,82.90
2022-12-08T03:04:54.232Z,83.00
2022-12-08T03:07:31.716Z,82.90
2022-12-08T03:10:18.578Z,82.80
2022-12-08T03:12:52.803Z,82.90
2022-12-08T03:15:21.586Z,82.80
2022-12-08T03:17:56.426Z,83.00
2022-12-08T03:20:25.426Z,83.10
2022-12-08T03:22:55.677Z,83.20
2022-12-08T03:25:25.879Z,83.20
2022-12-08T03:27:53.578Z,83.30
2022-12-08T03:30:20.248Z,83.30
2022-12-08T03:32:56.106Z,83.20
2022-12-08T03:35:32.947Z,83.20
2022-12-08T03:38:08.631Z,83.30
2022-12-08T03:40:35.481Z,83.30
2022-12-08T03:43:02.061Z,83.30
2022-12-08T03:45:29.193Z,83.30
2022-12-08T03:47:56.001Z,83.20
2022-12-08T03:50:23.350Z,83.20
2022-12-08T03:52:49.989Z,83.10
2022-12-08T03:55:17.191Z,83.10
2022-12-08T03:57:44.155Z,82.90
2022-12-08T04:00:14.866Z,83.00
2022-12-08T04:02:41.600Z,82.90
2022-12-08T04:05:08.751Z,83.00
2022-12-08T04:07:35.306Z,83.80
2022-12-08T04:10:02.212Z,83.00
2022-12-08T04:12:29.049Z,83.00
2022-12-08T04:14:55.607Z,83.00
2022-12-08T04:17:22.216Z,82.90
2022-12-08T04:19:48.783Z,82.90
2022-12-08T04:22:15.393Z,82.90
2022-12-08T04:24:41.949Z,82.80
2022-12-08T04:27:08.542Z,82.70
2022-12-08T04:29:35.173Z,82.70
2022-12-08T04:32:01.751Z,82.80
2022-12-08T04:34:28.363Z,82.80
2022-12-08T04:36:54.986Z,82.80
2022-12-08T04:39:21.602Z,82.70
2022-12-08T04:41:48.158Z,82.70
2022-12-08T04:44:14.843Z,82.80
2022-12-08T04:46:43.548Z,82.70
2022-12-08T04:49:10.629Z,82.70
2022-12-08T04:51:37.250Z,82.70
2022-12-08T04:54:03.947Z,82.80
2022-12-08T04:56:30.540Z,82.80
2022-12-08T04:58:57.129Z,82.80
2022-12-08T05:01:23.751Z,82.80
2022-12-08T05:03:50.410Z,82.90
2022-12-08T05:06:17.274Z,82.90
2022-12-08T05:08:43.981Z,82.90
2022-12-08T05:11:12.781Z,82.80
2022-12-08T05:13:39.557Z,82.90
2022-12-08T05:16:08.723Z,82.80
2022-12-08T05:18:35.884Z,82.90
2022-12-08T05:21:03.042Z,82.90
2022-12-08T05:23:29.814Z,82.80
2022-12-08T05:25:56.538Z,82.90
2022-12-08T05:31:11.758Z,83.00
2022-12-08T05:33:38.422Z,83.00
2022-12-08T05:36:05.233Z,83.00
2022-12-08T05:38:31.829Z,82.90
2022-12-08T05:40:58.582Z,83.00
2022-12-08T05:43:25.239Z,82.90
2022-12-08T05:45:51.863Z,82.90
2022-12-08T05:48:18.533Z,82.90
2022-12-08T05:50:48.921Z,82.90
2022-12-08T05:53:16.633Z,82.90
2022-12-08T05:55:43.448Z,83.60
2022-12-08T05:58:19.178Z,83.00
2022-12-08T06:00:46.952Z,83.00
2022-12-08T06:03:15.052Z,83.10
2022-12-08T06:05:43.523Z,83.20
2022-12-08T06:08:10.873Z,83.10
2022-12-08T06:10:42.099Z,83.10
2022-12-08T06:13:09.072Z,83.10
2022-12-08T06:15:36.628Z,83.20
2022-12-08T06:18:04.118Z,83.10
2022-12-08T06:20:30.835Z,83.10
2022-12-08T06:22:57.849Z,83.10
2022-12-08T06:25:24.997Z,83.10
2022-12-08T06:27:52.053Z,83.10
2022-12-08T06:30:18.984Z,83.00
2022-12-08T06:32:45.685Z,82.90
2022-12-08T06:35:12.352Z,82.90
2022-12-08T06:37:38.967Z,82.90
2022-12-08T06:40:06.674Z,82.80
2022-12-08T06:42:46.636Z,82.80
2022-12-08T06:45:15.723Z,82.80
2022-12-08T06:47:42.348Z,82.80
2022-12-08T06:50:10.301Z,82.70
2022-12-08T06:52:45.598Z,82.70
2022-12-08T06:55:35.547Z,82.70
2022-12-08T06:58:02.824Z,82.70
2022-12-08T07:00:29.498Z,82.50
2022-12-08T07:02:56.152Z,82.50
2022-12-08T07:05:22.737Z,82.50
2022-12-08T07:07:49.576Z,82.60
2022-12-08T07:10:16.346Z,82.50
2022-12-08T07:12:42.912Z,82.50
2022-12-08T07:15:10.182Z,82.50
2022-12-08T07:17:36.838Z,82.50
2022-12-08T07:20:04.106Z,82.40
2022-12-08T07:22:30.805Z,82.40
2022-12-08T07:24:57.429Z,82.30
2022-12-08T07:27:24.051Z,82.50
2022-12-08T07:29:50.677Z,82.30
2022-12-08T07:32:17.303Z,82.40
2022-12-08T07:34:44.843Z,82.30
2022-12-08T07:37:13.694Z,82.30
2022-12-08T07:39:40.281Z,82.30
2022-12-08T07:42:06.914Z,82.30
2022-12-08T07:44:33.596Z,82.40
2022-12-08T07:47:00.198Z,82.50
2022-12-08T07:49:26.873Z,82.50
2022-12-08T07:51:53.542Z,82.40
2022-12-08T07:54:20.097Z,82.50
2022-12-08T07:56:46.733Z,82.40
2022-12-08T07:59:14.257Z,82.50
2022-12-08T08:01:45.148Z,82.50
2022-12-08T08:04:12.252Z,82.50
2022-12-08T08:06:39.034Z,82.60
2022-12-08T08:09:05.625Z,82.60
2022-12-08T08:11:32.249Z,82.50
2022-12-08T08:13:58.970Z,82.50
2022-12-08T08:16:25.757Z,82.60
2022-12-08T08:18:52.724Z,82.60
2022-12-08T08:24:07.521Z,82.50
2022-12-08T08:26:34.155Z,82.50
2022-12-08T08:29:00.746Z,82.50
2022-12-08T08:31:27.486Z,82.50
2022-12-08T08:33:55.597Z,82.50
2022-12-08T08:36:22.437Z,82.50
2022-12-08T08:38:49.179Z,82.50
2022-12-08T08:41:15.781Z,82.50
2022-12-08T08:43:42.390Z,82.50
2022-12-08T08:46:10.068Z,82.50
2022-12-08T08:48:36.792Z,82.50
2022-12-08T08:51:11.405Z,82.40
2022-12-08T08:53:38.283Z,82.50
2022-12-08T08:56:16.087Z,82.50
2022-12-08T08:58:42.731Z,82.60
2022-12-08T09:01:14.317Z,82.50
2022-12-08T09:03:41.111Z,82.50
2022-12-08T09:06:07.818Z,82.40
2022-12-08T09:08:34.526Z,82.40
2022-12-08T09:11:01.182Z,82.40
2022-12-08T09:13:27.808Z,82.30
2022-12-08T09:15:54.890Z,82.40
2022-12-08T09:18:21.530Z,82.50
2022-12-08T09:20:48.114Z,82.60
2022-12-08T09:23:15.089Z,82.80
2022-12-08T09:25:45.521Z,82.60
2022-12-08T09:28:12.874Z,82.60
2022-12-08T09:30:39.965Z,82.50
2022-12-08T09:33:07.053Z,82.50
2022-12-08T09:35:33.879Z,82.50
2022-12-08T09:38:00.473Z,82.50
2022-12-08T09:40:28.159Z,82.60
2022-12-08T09:43:04.885Z,82.60
2022-12-08T09:45:35.391Z,82.70
2022-12-08T09:48:09.823Z,82.60
2022-12-08T09:50:48.274Z,82.70
2022-12-08T09:53:35.082Z,82.70
2022-12-08T09:56:07.362Z,82.70
2022-12-08T09:59:02.593Z,82.80
2022-12-08T10:01:32.914Z,82.80
2022-12-08T10:04:00.642Z,82.80
2022-12-08T10:06:54.449Z,82.80
2022-12-08T10:09:52.619Z,83.60
2022-12-08T10:12:36.665Z,82.90
2022-12-08T10:15:37.260Z,82.90
2022-12-08T10:18:16.766Z,82.90
2022-12-08T10:20:46.411Z,82.90
2022-12-08T10:23:12.940Z,82.90
2022-12-08T10:25:51.999Z,82.90
2022-12-08T10:28:18.575Z,83.00
2022-12-08T10:30:45.168Z,82.90
2022-12-08T10:33:17.877Z,82.90
2022-12-08T10:35:47.848Z,82.90
2022-12-08T10:38:19.645Z,82.80
2022-12-08T10:40:48.260Z,82.80
2022-12-08T10:43:20.463Z,82.80
2022-12-08T10:45:47.305Z,82.70
2022-12-08T10:48:28.653Z,82.70
2022-12-08T10:50:58.146Z,82.90
2022-12-08T10:53:30.982Z,82.90
2022-12-08T10:56:03.700Z,82.80
2022-12-08T10:58:34.002Z,82.80
2022-12-08T11:01:11.029Z,82.70
2022-12-08T11:03:55.725Z,82.70
2022-12-08T11:06:36.929Z,82.80
2022-12-08T11:09:15.633Z,82.70
2022-12-08T11:11:52.462Z,82.60
2022-12-08T11:14:37.906Z,82.40
2022-12-08T11:17:15.387Z,82.40
2022-12-08T11:19:55.276Z,82.50
2022-12-08T11:22:38.509Z,82.60
2022-12-08T11:25:08.137Z,82.60
2022-12-08T11:27:36.736Z,82.60
2022-12-08T11:30:27.389Z,82.60
2022-12-08T11:32:58.783Z,82.30
2022-12-08T11:35:40.006Z,82.30
2022-12-08T11:38:21.530Z,82.30
2022-12-08T11:40:55.233Z,82.30
2022-12-08T11:43:36.865Z,82.20
2022-12-08T11:46:11.722Z,82.40
2022-12-08T11:48:53.120Z,82.40
2022-12-08T11:51:34.686Z,82.20
2022-12-08T11:54:20.067Z,82.20
2022-12-08T11:57:04.854Z,82.30
2022-12-08T11:59:46.821Z,82.30
2022-12-08T12:02:24.588Z,82.20
2022-12-08T12:04:57.945Z,82.40
2022-12-08T12:07:43.235Z,82.50
2022-12-08T12:10:28.445Z,82.30
2022-12-08T12:13:57.057Z,82.30
2022-12-08T12:16:51.239Z,82.30
2022-12-08T12:19:20.425Z,82.60
2022-12-08T12:22:02.070Z,82.10
2022-12-08T12:24:36.330Z,82.20
2022-12-08T12:27:18.504Z,81.90
2022-12-08T12:29:55.320Z,81.70
2022-12-08T12:32:23.438Z,81.60
2022-12-08T12:34:56.389Z,81.50
2022-12-08T12:37:27.757Z,81.60
2022-12-08T12:40:03.844Z,81.70
2022-12-08T12:42:41.577Z,81.60
2022-12-08T12:45:22.533Z,81.40
2022-12-08T12:48:11.977Z,81.50
2022-12-08T12:55:00.229Z,81.20
2022-12-08T12:57:52.645Z,81.30
2022-12-08T13:00:56.574Z,81.20
2022-12-08T13:03:24.813Z,81.10
2022-12-08T13:05:57.406Z,81.20
2022-12-08T13:08:27.344Z,81.20
2022-12-08T13:11:01.776Z,81.20
2022-12-08T13:13:28.904Z,81.20
2022-12-08T13:16:19.249Z,81.10
2022-12-08T13:18:52.115Z,80.90
2022-12-08T13:21:24.323Z,80.90
2022-12-08T13:24:12.961Z,81.00
2022-12-08T13:26:49.702Z,81.20
2022-12-08T13:29:26.254Z,81.20
2022-12-08T13:32:01.135Z,81.20
2022-12-08T13:34:54.794Z,81.20
2022-12-08T13:37:28.397Z,81.00
2022-12-08T13:40:14.097Z,80.70
2022-12-08T13:42:40.697Z,80.90
2022-12-08T13:45:39.753Z,81.10
2022-12-08T13:48:55.939Z,81.10
2022-12-08T13:53:22.527Z,81.30
2022-12-08T13:57:13.974Z,81.20
2022-12-08T13:59:45.257Z,81.30
2022-12-08T14:02:20.643Z,81.30
2022-12-08T14:05:17.356Z,81.30
2022-12-08T14:07:34.641Z,81.20
2022-12-08T14:10:03.599Z,81.00
2022-12-08T14:12:31.459Z,80.90
2022-12-08T14:15:06.323Z,80.90
2022-12-08T14:17:33.618Z,81.00
2022-12-08T14:20:04.582Z,80.90
2022-12-08T14:22:38.418Z,81.00
2022-12-08T14:25:07.444Z,81.00
2022-12-08T14:27:36.963Z,81.00
2022-12-08T14:30:07.450Z,80.80
2022-12-08T14:32:47.066Z,80.80
2022-12-08T14:35:19.563Z,80.90
2022-12-08T14:37:51.493Z,80.90
2022-12-08T14:40:23.805Z,80.80
2022-12-08T14:42:54.402Z,81.60
2022-12-08T14:45:21.444Z,81.00
2022-12-08T14:47:48.543Z,81.10
2022-12-08T14:50:37.854Z,81.10
2022-12-08T14:53:11.083Z,81.10
2022-12-08T14:55:38.222Z,81.10
2022-12-08T14:58:05.044Z,81.10
2022-12-08T15:00:31.855Z,81.10
2022-12-08T15:02:58.939Z,81.10
2022-12-08T15:05:30.634Z,81.00
2022-12-08T15:08:03.470Z,81.00
2022-12-08T15:10:33.235Z,81.00
2022-12-08T15:13:21.978Z,81.10
2022-12-08T15:15:56.423Z,81.20
2022-12-08T15:18:31.135Z,81.30
2022-12-08T15:21:04.662Z,81.30
2022-12-08T15:23:45.066Z,81.30
2022-12-08T15:26:23.771Z,81.30
2022-12-08T15:28:50.584Z,81.40
2022-12-08T15:31:18.326Z,81.50
2022-12-08T15:33:45.130Z,81.50
2022-12-08T15:36:12.035Z,81.50
2022-12-08T15:38:43.554Z,81.50
2022-12-08T15:41:14.978Z,81.70
2022-12-08T15:43:41.985Z,81.60
2022-12-08T15:46:12.130Z,81.70
2022-12-08T15:48:44.988Z,81.80
2022-12-08T15:51:12.014Z,81.80
2022-12-08T15:53:45.053Z,81.90
2022-12-08T15:56:30.352Z,82.00
2022-12-08T15:58:58.209Z,81.90
2022-12-08T16:01:25.783Z,81.70
2022-12-08T16:04:36.919Z,81.60
2022-12-08T16:09:38.452Z,81.50
2022-12-08T16:12:25.668Z,81.40
2022-12-08T16:17:40.657Z,81.50
2022-12-08T16:20:16.717Z,81.60
2022-12-08T16:25:46.188Z,81.60
2022-12-08T16:28:52.264Z,81.60
2022-12-08T16:31:06.446Z,81.50
2022-12-08T16:33:35.670Z,81.50
2022-12-08T16:36:02.324Z,81.50
2022-12-08T16:38:28.915Z,81.50
2022-12-08T16:41:13.883Z,82.30
2022-12-08T16:43:40.526Z,81.50
2022-12-08T16:46:12.768Z,81.50
2022-12-08T16:48:41.516Z,81.50
2022-12-08T16:51:23.438Z,81.60
2022-12-08T16:53:53.416Z,81.70
2022-12-08T16:56:21.693Z,81.50
2022-12-08T16:58:48.610Z,81.70
2022-12-08T17:01:18.001Z,81.70
2022-12-08T17:04:01.411Z,81.70
2022-12-08T17:06:33.055Z,81.80
2022-12-08T17:08:59.885Z,81.60
2022-12-08T17:11:28.342Z,81.70
2022-12-08T17:13:54.947Z,81.70
2022-12-08T17:16:21.778Z,81.70
2022-12-08T17:18:48.700Z,81.70
2022-12-08T17:21:17.774Z,81.60
2022-12-08T17:23:44.881Z,81.50
2022-12-08T17:26:12.129Z,81.70
2022-12-08T17:28:59.349Z,81.60
2022-12-08T17:31:29.556Z,81.60
2022-12-08T17:34:02.504Z,81.80
2022-12-08T17:36:29.283Z,81.70
2022-12-08T17:38:58.818Z,81.70
2022-12-08T17:41:25.604Z,81.80
2022-12-08T17:43:52.207Z,81.90
2022-12-08T17:46:19.584Z,81.90
2022-12-08T17:48:46.706Z,81.90
2022-12-08T17:51:13.333Z,81.90
2022-12-08T17:53:40.651Z,81.80
2022-12-08T17:56:18.352Z,81.80
2022-12-08T17:58:47.589Z,81.80
2022-12-08T18:01:17.934Z,81.80
2022-12-08T18:03:45.167Z,81.70
2022-12-08T18:06:12.570Z,81.80
2022-12-08T18:08:39.802Z,81.80
2022-12-08T18:11:15.963Z,81.80
2022-12-08T18:13:42.574Z,81.80
2022-12-08T18:16:09.210Z,81.80
2022-12-08T18:18:35.797Z,81.90
2022-12-08T18:21:02.545Z,81.80
2022-12-08T18:23:29.377Z,81.80
2022-12-08T18:25:56.081Z,81.80
2022-12-08T18:28:23.669Z,81.80
2022-12-08T18:30:50.598Z,81.70
2022-12-08T18:33:17.447Z,81.80
2022-12-08T18:35:44.089Z,81.90
2022-12-08T18:38:10.670Z,81.80
2022-12-08T18:40:37.318Z,81.80
2022-12-08T18:43:03.986Z,81.80
2022-12-08T18:45:30.773Z,81.70
2022-12-08T18:47:57.401Z,81.70
2022-12-08T18:50:23.986Z,81.70
2022-12-08T18:52:51.386Z,81.80
2022-12-08T18:55:18.075Z,81.70
2022-12-08T18:57:44.783Z,81.60
2022-12-08T19:00:17.680Z,81.60
2022-12-08T19:02:44.367Z,81.60
2022-12-08T19:05:13.366Z,81.70
2022-12-08T19:07:40.230Z,81.80
2022-12-08T19:10:07.756Z,81.90
2022-12-08T19:12:34.563Z,82.00
2022-12-08T19:15:01.267Z,82.10
2022-12-08T19:17:29.626Z,82.20
2022-12-08T19:19:56.298Z,82.20
2022-12-08T19:22:22.920Z,82.20
2022-12-08T19:24:49.853Z,82.30
2022-12-08T19:27:16.901Z,82.30
2022-12-08T19:29:43.534Z,82.30
2022-12-08T19:32:10.183Z,82.30
2022-12-08T19:34:36.946Z,82.40
2022-12-08T19:37:03.786Z,82.40
2022-12-08T19:39:48.953Z,82.50
2022-12-08T19:42:36.505Z,82.50
2022-12-08T19:45:12.943Z,82.50
2022-12-08T19:47:39.939Z,82.40
2022-12-08T19:50:27.224Z,82.40
2022-12-08T19:52:54.730Z,82.50
2022-12-08T19:55:23.495Z,82.50
2022-12-08T19:57:53.730Z,82.50
2022-12-08T20:00:21.338Z,82.50
2022-12-08T20:02:48.169Z,82.60
2022-12-08T20:05:15.226Z,82.60
2022-12-08T20:07:42.032Z,82.70
2022-12-08T20:10:16.810Z,82.60
2022-12-08T20:12:43.457Z,82.70
2022-12-08T20:15:10.573Z,82.70
2022-12-08T20:17:38.324Z,82.70
2022-12-08T20:20:07.561Z,82.70
2022-12-08T20:22:34.657Z,82.80
2022-12-08T20:25:01.439Z,82.80
2022-12-08T20:27:28.943Z,82.80
2022-12-08T20:29:55.574Z,82.80
2022-12-08T20:32:22.175Z,82.90
2022-12-08T20:34:48.947Z,82.90
2022-12-08T20:37:15.644Z,83.00
2022-12-08T20:39:42.254Z,83.00
2022-12-08T20:42:13.544Z,82.90
2022-12-08T20:44:44.379Z,82.90
2022-12-08T20:47:12.881Z,83.00
2022-12-08T20:49:39.731Z,83.00
2022-12-08T20:52:06.790Z,82.90
2022-12-08T20:54:34.045Z,82.90
2022-12-08T20:57:01.344Z,82.90
2022-12-08T20:59:28.110Z,82.80
2022-12-08T21:01:55.188Z,83.60
2022-12-08T21:04:22.883Z,82.90
2022-12-08T21:06:50.069Z,82.90
2022-12-08T21:09:17.112Z,82.90
2022-12-08T21:11:43.932Z,82.90
2022-12-08T21:14:10.842Z,82.80
2022-12-08T21:16:38.440Z,82.90
2022-12-08T21:19:06.182Z,82.80
2022-12-08T21:21:32.993Z,82.80
2022-12-08T21:23:59.778Z,82.80
2022-12-08T21:26:26.644Z,82.80
2022-12-08T21:28:54.746Z,82.90
2022-12-08T21:31:22.019Z,82.80
2022-12-08T21:33:49.340Z,82.90
2022-12-08T21:36:18.755Z,82.90
2022-12-08T21:38:46.201Z,82.90
2022-12-08T21:41:54.787Z,82.80
2022-12-08T21:44:21.612Z,82.90
2022-12-08T21:46:48.353Z,82.80
2022-12-08T21:49:15.813Z,83.40
2022-12-08T21:51:42.845Z,82.70
2022-12-08T21:54:16.688Z,82.70
2022-12-08T21:56:46.251Z,82.70
2022-12-08T21:59:12.959Z,82.80
2022-12-08T22:01:39.790Z,82.90
2022-12-08T22:04:06.916Z,82.90
2022-12-08T22:06:33.937Z,82.90
2022-12-08T22:09:00.872Z,82.90
2022-12-08T22:11:27.706Z,82.90
2022-12-08T22:13:54.519Z,82.90
2022-12-08T22:16:21.366Z,82.80
2022-12-08T22:18:48.153Z,82.80
2022-12-08T22:21:16.766Z,82.80
2022-12-08T22:23:44.070Z,82.80
2022-12-08T22:26:11.514Z,82.80
2022-12-08T22:28:40.684Z,82.80
2022-12-08T22:31:12.110Z,82.90
2022-12-08T22:33:42.879Z,82.80
2022-12-08T22:36:18.953Z,82.90
2022-12-08T22:38:46.051Z,82.80
2022-12-08T22:41:13.228Z,82.80
2022-12-08T22:43:40.538Z,82.70
2022-12-08T22:46:14.403Z,82.70
2022-12-08T22:48:41.157Z,82.70
2022-12-08T22:51:08.153Z,82.60
2022-12-08T22:53:34.910Z,82.70
2022-12-08T22:56:08.239Z,82.80
2022-12-08T22:58:35.562Z,82.80
2022-12-08T23:01:02.579Z,82.70
2022-12-08T23:03:29.528Z,82.70
2022-12-08T23:05:57.379Z,82.60
2022-12-08T23:08:24.424Z,82.60
2022-12-08T23:10:53.220Z,82.50
2022-12-08T23:13:21.089Z,82.60
2022-12-08T23:15:48.157Z,82.60
2022-12-08T23:18:18.686Z,83.40
2022-12-08T23:20:46.461Z,82.60
2022-12-08T23:23:13.671Z,82.50
2022-12-08T23:25:41.703Z,82.50
2022-12-08T23:28:09.309Z,82.50
2022-12-08T23:30:36.300Z,82.50
2022-12-08T23:33:03.068Z,82.50
2022-12-08T23:35:29.775Z,82.40
2022-12-08T23:37:56.450Z,82.30
2022-12-08T23:40:23.095Z,82.30
2022-12-08T23:42:49.736Z,82.20
2022-12-08T23:45:16.418Z,82.20
2022-12-08T23:47:43.023Z,82.10
2022-12-08T23:50:10.221Z,82.10
2022-12-08T23:52:39.503Z,82.20
2022-12-08T23:55:07.418Z,82.30
2022-12-08T23:57:35.814Z,82.30
